Time;durP1;ratioP1;P1;durP2;ratioP2;P2;SDS_P1;SDS_P2;PMS_P1;PMS_P2;Temp;Humidity;BMP_temperature;BMP_pressure;BME280_temperature;BME280_humidity;BME280_pressure;Samples;Min_cycle;Max_cycle;Signal;HPM_P1;HPM_P2
2021/01/25 00:04:49;;;;;;;14.27;9.90;;;2.00;99.90;;;;;;10531156;28;20516;-67
2021/01/25 00:09:55;;;;;;;14.07;9.07;;;2.40;99.90;;;;;;10514057;28;20072;-66
2021/01/25 00:14:56;;;;;;;14.77;9.30;;;2.60;99.90;;;;;;10531362;28;20110;-66
2021/01/25 00:19:58;;;;;;;13.13;8.57;;;2.50;99.90;;;;;;10530035;28;20113;-66
2021/01/25 00:24:59;;;;;;;13.35;8.55;;;2.50;99.90;;;;;;10531501;28;20504;-66
2021/01/25 00:30:01;;;;;;;10.88;6.57;;;2.60;99.90;;;;;;10519139;28;20136;-66
2021/01/25 00:35:02;;;;;;;12.00;7.57;;;2.60;99.90;;;;;;10530731;28;20044;-67
2021/01/25 00:40:06;;;;;;;9.48;6.75;;;2.60;99.90;;;;;;10530733;28;20080;-66
2021/01/25 00:45:08;;;;;;;13.60;7.53;;;2.80;99.90;;;;;;10529642;28;20047;-67
2021/01/25 00:50:10;;;;;;;12.23;9.10;;;2.90;99.90;;;;;;10530385;28;20130;-67
2021/01/25 00:55:13;;;;;;;14.68;10.52;;;2.80;99.90;;;;;;10530411;28;20135;-67
2021/01/25 01:00:16;;;;;;;16.20;9.77;;;2.70;99.90;;;;;;10529049;28;20567;-67
2021/01/25 01:05:17;;;;;;;15.38;9.48;;;2.50;99.90;;;;;;10528498;28;20171;-67
2021/01/25 01:10:18;;;;;;;16.10;10.30;;;2.40;99.90;;;;;;10529380;28;20052;-67
2021/01/25 01:15:20;;;;;;;15.70;10.55;;;2.40;99.90;;;;;;10528487;28;20123;-67
2021/01/25 01:20:21;;;;;;;15.88;10.45;;;2.30;99.90;;;;;;10529511;28;20048;-67
2021/01/25 01:25:23;;;;;;;15.40;9.75;;;2.40;99.90;;;;;;10511297;28;20456;-67
2021/01/25 01:30:25;;;;;;;16.45;10.55;;;2.30;99.90;;;;;;10527489;28;20535;-67
2021/01/25 01:35:26;;;;;;;14.35;10.93;;;2.30;99.90;;;;;;10529169;28;20093;-66
2021/01/25 01:40:38;;;;;;;14.52;11.05;;;2.40;99.90;;;;;;10528608;28;20056;-67
2021/01/25 01:45:39;;;;;;;16.65;11.45;;;2.30;99.90;;;;;;10526800;28;20456;-67
2021/01/25 01:50:41;;;;;;;19.35;12.68;;;2.30;99.90;;;;;;10528303;28;20087;-67
2021/01/25 01:55:44;;;;;;;19.80;13.07;;;2.30;99.90;;;;;;10528098;28;20416;-67
2021/01/25 02:00:45;;;;;;;19.42;13.90;;;2.30;99.90;;;;;;10527815;28;20071;-67
2021/01/25 02:05:47;;;;;;;19.77;13.63;;;2.30;99.90;;;;;;10527868;28;20056;-67
2021/01/25 02:10:52;;;;;;;16.20;12.20;;;2.30;99.90;;;;;;10527383;28;20083;-67
2021/01/25 02:15:54;;;;;;;23.73;14.88;;;2.40;99.90;;;;;;10527147;28;20538;-67
2021/01/25 02:20:58;;;;;;;18.67;12.95;;;2.50;99.90;;;;;;10527114;28;20072;-67
2021/01/25 02:26:31;;;;;;;19.88;13.60;;;2.50;99.90;;;;;;10527903;28;20098;-66
2021/01/25 02:31:33;;;;;;;21.02;13.15;;;2.60;99.90;;;;;;10515996;28;20135;-67
2021/01/25 02:36:35;;;;;;;26.50;15.32;;;2.40;99.90;;;;;;10526928;28;20455;-67
2021/01/25 02:41:39;;;;;;;18.27;13.80;;;2.60;99.90;;;;;;10525516;28;20067;-67
2021/01/25 02:46:44;;;;;;;20.70;14.18;;;2.70;99.90;;;;;;10526420;28;20068;-67
2021/01/25 02:51:46;;;;;;;21.23;14.40;;;2.60;99.90;;;;;;10527635;28;20048;-67
2021/01/25 02:56:48;;;;;;;24.00;16.10;;;2.70;99.90;;;;;;10526898;28;20163;-67
2021/01/25 03:01:50;;;;;;;21.55;14.77;;;2.70;99.90;;;;;;10528311;28;20454;-67
2021/01/25 03:06:52;;;;;;;32.47;17.02;;;2.60;99.90;;;;;;10535190;28;20080;-67
2021/01/25 03:11:56;;;;;;;29.70;15.77;;;2.70;99.90;;;;;;10535161;28;20079;-67
2021/01/25 03:16:57;;;;;;;27.38;16.20;;;2.70;99.90;;;;;;10533337;28;20048;-67
2021/01/25 03:21:59;;;;;;;28.52;17.40;;;2.50;99.90;;;;;;10534209;28;20446;-67
2021/01/25 03:27:00;;;;;;;29.52;18.45;;;2.60;99.90;;;;;;10534649;28;20075;-67
2021/01/25 03:32:02;;;;;;;25.80;15.85;;;2.40;99.90;;;;;;10538270;28;20051;-67
2021/01/25 03:37:04;;;;;;;32.65;19.20;;;2.30;99.90;;;;;;10540925;28;20044;-67
2021/01/25 03:42:05;;;;;;;23.98;15.90;;;2.20;99.90;;;;;;10541365;28;20078;-67
2021/01/25 03:47:07;;;;;;;28.80;17.10;;;2.20;99.90;;;;;;10540346;28;20060;-67
2021/01/25 03:52:09;;;;;;;24.83;14.32;;;2.20;99.90;;;;;;10539196;28;20082;-67
2021/01/25 03:57:10;;;;;;;20.73;15.27;;;2.20;99.90;;;;;;10540998;28;20083;-67
2021/01/25 04:02:13;;;;;;;22.73;14.88;;;2.50;99.90;;;;;;10537853;28;20442;-67
2021/01/25 04:07:15;;;;;;;24.60;16.33;;;2.60;99.90;;;;;;10534439;28;20427;-67
2021/01/25 04:12:16;;;;;;;27.58;17.35;;;2.60;99.90;;;;;;10533498;28;20075;-67
2021/01/25 04:17:17;;;;;;;25.67;17.70;;;2.50;99.90;;;;;;10531876;28;20127;-67
2021/01/25 04:22:19;;;;;;;28.77;16.92;;;2.40;99.90;;;;;;10529671;28;20547;-67
2021/01/25 04:27:21;;;;;;;44.15;22.85;;;2.30;99.90;;;;;;10532103;28;20131;-67
2021/01/25 04:32:24;;;;;;;38.22;21.92;;;2.20;99.90;;;;;;10531291;28;20047;-67
2021/01/25 04:37:25;;;;;;;31.00;19.25;;;2.20;99.90;;;;;;10532123;28;20468;-67
2021/01/25 04:42:28;;;;;;;24.35;16.77;;;2.40;99.90;;;;;;10531512;28;20071;-67
2021/01/25 04:47:30;;;;;;;34.35;19.67;;;2.60;99.90;;;;;;10530888;28;20048;-67
2021/01/25 04:52:32;;;;;;;30.05;18.08;;;2.60;99.90;;;;;;10531817;28;20047;-67
2021/01/25 04:57:35;;;;;;;26.95;17.80;;;2.70;99.90;;;;;;10531132;28;20099;-67
2021/01/25 05:02:40;;;;;;;29.17;18.30;;;2.80;99.90;;;;;;10530988;28;20078;-67
2021/01/25 05:07:43;;;;;;;24.83;18.65;;;2.90;99.90;;;;;;10530377;28;20056;-67
2021/01/25 05:12:45;;;;;;;31.45;19.50;;;2.80;99.90;;;;;;10512757;28;20486;-67
2021/01/25 05:17:47;;;;;;;32.38;19.95;;;2.90;99.90;;;;;;10529812;28;20071;-67
2021/01/25 05:22:49;;;;;;;32.83;20.13;;;2.90;99.90;;;;;;10512216;28;20470;-67
2021/01/25 05:27:50;;;;;;;30.10;18.35;;;3.10;99.90;;;;;;10529927;28;21103;-67
2021/01/25 05:32:54;;;;;;;29.63;19.23;;;3.00;99.90;;;;;;10529557;28;20052;-67
2021/01/25 05:37:57;;;;;;;22.25;15.90;;;3.10;99.90;;;;;;10529721;28;20048;-67
2021/01/25 05:43:00;;;;;;;30.05;18.63;;;3.10;99.90;;;;;;10529622;28;20074;-67
2021/01/25 05:48:01;;;;;;;26.40;17.58;;;3.10;99.90;;;;;;10509951;28;20086;-67
2021/01/25 05:53:08;;;;;;;25.67;16.55;;;3.00;99.90;;;;;;10528708;28;20052;-67
2021/01/25 05:58:10;;;;;;;23.05;16.70;;;3.10;99.90;;;;;;10527954;28;20492;-68
2021/01/25 06:03:13;;;;;;;30.75;19.90;;;3.00;99.90;;;;;;10509673;28;20531;-67
2021/01/25 06:08:23;;;;;;;31.85;18.40;;;2.90;99.90;;;;;;10528849;28;20056;-67
2021/01/25 06:13:29;;;;;;;26.92;19.38;;;2.90;99.90;;;;;;10528537;28;20400;-67
2021/01/25 06:18:32;;;;;;;32.90;19.35;;;3.00;99.90;;;;;;10527932;28;20552;-67
2021/01/25 06:23:35;;;;;;;31.58;21.35;;;2.90;99.90;;;;;;10528393;28;20124;-67
2021/01/25 06:28:39;;;;;;;26.48;17.52;;;2.80;99.90;;;;;;10527943;28;20102;-68
2021/01/25 06:33:41;;;;;;;25.33;17.80;;;2.80;99.90;;;;;;10527908;28;20466;-67
2021/01/25 06:38:44;;;;;;;25.63;17.27;;;2.80;99.90;;;;;;10528368;28;20131;-68
2021/01/25 06:43:47;;;;;;;25.33;16.92;;;2.90;99.90;;;;;;10527475;28;20078;-68
2021/01/25 06:48:51;;;;;;;26.55;18.65;;;3.00;99.90;;;;;;10528022;28;20080;-67
2021/01/25 06:53:53;;;;;;;33.85;20.77;;;2.80;99.90;;;;;;10527315;28;20433;-67
2021/01/25 06:58:57;;;;;;;28.58;20.02;;;2.90;99.90;;;;;;10527679;28;20044;-67
2021/01/25 07:03:59;;;;;;;31.77;20.83;;;3.00;99.90;;;;;;10528116;28;20181;-67
2021/01/25 07:09:04;;;;;;;33.08;22.20;;;3.10;99.90;;;;;;10535234;28;20548;-68
2021/01/25 07:14:05;;;;;;;33.30;22.45;;;3.10;99.90;;;;;;10534603;28;20540;-68
2021/01/25 07:19:07;;;;;;;40.22;24.25;;;3.10;99.90;;;;;;10534665;28;20056;-68
2021/01/25 07:24:12;;;;;;;55.80;27.83;;;3.10;99.90;;;;;;10535343;28;20120;-67
2021/01/25 07:29:13;;;;;;;40.30;25.80;;;3.10;99.90;;;;;;10533127;28;20056;-68
2021/01/25 07:34:15;;;;;;;32.03;22.77;;;3.10;99.90;;;;;;10534371;28;20127;-67
2021/01/25 07:39:18;;;;;;;45.28;26.40;;;3.10;99.90;;;;;;10516857;28;20048;-68
2021/01/25 07:44:19;;;;;;;39.17;26.67;;;3.20;99.90;;;;;;10534217;28;20127;-68
2021/01/25 07:49:27;;;;;;;40.83;25.63;;;3.20;99.90;;;;;;10492483;28;20102;-68
2021/01/25 07:54:30;;;;;;;55.53;30.20;;;3.30;99.90;;;;;;10496735;28;20119;-67
2021/01/25 07:59:35;;;;;;;39.90;25.42;;;3.40;99.90;;;;;;10532097;28;20109;-67
2021/01/25 08:04:40;;;;;;;39.28;25.27;;;3.40;99.90;;;;;;10533010;28;20052;-68
2021/01/25 08:09:43;;;;;;;43.03;26.20;;;3.60;99.90;;;;;;10534353;28;20052;-68
2021/01/25 08:14:51;;;;;;;40.85;26.45;;;3.70;99.90;;;;;;10532710;28;20044;-68
2021/01/25 08:20:04;;;;;;;42.40;26.40;;;3.90;99.90;;;;;;10525874;28;20067;-68
2021/01/25 08:25:07;;;;;;;33.63;24.08;;;4.00;99.90;;;;;;10528700;28;20081;-68
2021/01/25 08:30:13;;;;;;;34.97;24.98;;;4.20;99.90;;;;;;10528480;28;20052;-67
2021/01/25 08:35:27;;;;;;;38.63;25.83;;;4.10;99.90;;;;;;10530346;28;20436;-68
2021/01/25 08:40:34;;;;;;;41.63;26.63;;;4.30;99.90;;;;;;10529541;28;20079;-68
2021/01/25 08:45:36;;;;;;;38.58;25.50;;;4.40;99.90;;;;;;10529325;28;20051;-68
2021/01/25 08:50:38;;;;;;;42.30;26.00;;;4.60;99.90;;;;;;10528802;28;20052;-68
2021/01/25 08:55:44;;;;;;;37.53;25.60;;;4.60;99.90;;;;;;10530243;28;20134;-68
2021/01/25 09:00:48;;;;;;;29.83;23.67;;;4.60;99.90;;;;;;10510534;28;20562;-68
2021/01/25 09:05:55;;;;;;;33.60;22.65;;;4.70;99.90;;;;;;10503222;28;20085;-67
2021/01/25 09:11:01;;;;;;;;;;;4.90;99.90;;;;;;10520847;28;20056;-68
2021/01/25 09:16:02;;;;;;;34.38;24.23;;;4.80;99.90;;;;;;10526235;28;19928;-68
2021/01/25 09:21:04;;;;;;;34.78;24.20;;;4.90;99.90;;;;;;10526050;28;20093;-67
2021/01/25 09:26:05;;;;;;;33.88;24.00;;;5.10;99.90;;;;;;10526850;28;20127;-68
2021/01/25 09:31:08;;;;;;;35.47;24.65;;;5.00;99.90;;;;;;10492086;28;20140;-68
2021/01/25 09:36:10;;;;;;;29.77;22.33;;;5.00;99.90;;;;;;10540780;28;20132;-68
2021/01/25 09:41:11;;;;;;;30.92;23.05;;;4.90;99.90;;;;;;10526955;28;20461;-67
2021/01/25 09:46:13;;;;;;;30.15;22.90;;;5.00;99.90;;;;;;10529008;28;20489;-68
2021/01/25 09:51:15;;;;;;;30.08;23.33;;;5.10;99.90;;;;;;10527769;28;20055;-67
2021/01/25 09:56:16;;;;;;;26.83;20.15;;;5.20;99.90;;;;;;10510652;28;20479;-68
2021/01/25 10:01:18;;;;;;;27.02;21.67;;;5.10;99.90;;;;;;10528358;28;20079;-68
2021/01/25 10:06:20;;;;;;;32.13;23.15;;;5.10;99.90;;;;;;10510161;28;20047;-68
2021/01/25 10:11:22;;;;;;;31.00;22.63;;;4.90;99.90;;;;;;10528810;28;20051;-68
2021/01/25 10:16:23;;;;;;;28.23;21.30;;;4.80;99.90;;;;;;10525161;28;20110;-68
2021/01/25 10:21:25;;;;;;;29.40;21.45;;;4.80;99.90;;;;;;10507880;28;20044;-68
2021/01/25 10:26:27;;;;;;;28.77;21.77;;;4.80;99.90;;;;;;10526430;28;20056;-68
2021/01/25 10:31:28;;;;;;;25.92;19.63;;;5.00;99.90;;;;;;10521369;28;20117;-68
2021/01/25 10:36:30;;;;;;;24.77;19.30;;;5.10;99.90;;;;;;10525845;28;20109;-68
2021/01/25 10:41:31;;;;;;;21.75;17.75;;;5.30;99.90;;;;;;10530973;28;20098;-68
2021/01/25 10:46:32;;;;;;;23.20;18.70;;;5.30;99.90;;;;;;10534257;28;20524;-68
2021/01/25 10:51:34;;;;;;;25.52;19.60;;;5.60;99.90;;;;;;10535615;28;20078;-65
2021/01/25 10:56:36;;;;;;;24.98;18.67;;;5.90;99.90;;;;;;10533445;28;20593;-64
2021/01/25 11:01:37;;;;;;;23.33;18.17;;;5.70;99.90;;;;;;10535025;28;20044;-65
2021/01/25 11:06:39;;;;;;;24.23;18.95;;;5.80;99.90;;;;;;10517509;28;20105;-65
2021/01/25 11:11:40;;;;;;;25.92;20.85;;;6.00;99.90;;;;;;10535803;28;20488;-65
2021/01/25 11:16:44;;;;;;;24.17;20.95;;;6.30;99.90;;;;;;10534789;28;20075;-65
2021/01/25 11:21:46;;;;;;;28.45;22.23;;;6.20;99.90;;;;;;10533229;28;20708;-65
2021/01/25 11:26:47;;;;;;;22.55;18.38;;;6.10;99.90;;;;;;10534327;28;20511;-65
2021/01/25 11:31:49;;;;;;;26.02;21.13;;;6.10;99.90;;;;;;10534224;28;20131;-65
2021/01/25 11:36:51;;;;;;;21.42;18.10;;;5.90;99.90;;;;;;10534907;28;20079;-65
2021/01/25 11:41:52;;;;;;;18.88;15.98;;;5.80;99.90;;;;;;10531641;28;20127;-66
2021/01/25 11:46:54;;;;;;;20.65;17.20;;;5.80;99.90;;;;;;10534869;28;20126;-65
2021/01/25 11:51:56;;;;;;;19.88;16.90;;;5.60;99.90;;;;;;10533297;28;20075;-66
2021/01/25 11:56:58;;;;;;;24.42;18.83;;;5.50;99.90;;;;;;10534400;28;20084;-65
2021/01/25 12:01:59;;;;;;;26.58;20.70;;;5.30;99.90;;;;;;10533464;28;20055;-65
2021/01/25 12:07:01;;;;;;;27.92;19.05;;;5.40;99.90;;;;;;10533723;28;20048;-66
2021/01/25 12:12:04;;;;;;;29.55;20.83;;;5.40;99.90;;;;;;10533868;28;20450;-65
2021/01/25 12:17:06;;;;;;;31.58;22.45;;;5.30;99.90;;;;;;10533047;28;20532;-65
2021/01/25 12:22:07;;;;;;;25.88;19.73;;;5.10;99.90;;;;;;10533138;28;20492;-65
2021/01/25 12:27:09;;;;;;;29.42;20.75;;;5.00;99.90;;;;;;10533503;28;20075;-66
2021/01/25 12:32:10;;;;;;;27.77;19.98;;;4.90;99.90;;;;;;10532869;28;20048;-65
2021/01/25 12:37:12;;;;;;;30.40;21.80;;;4.90;99.90;;;;;;10533202;28;20102;-65
2021/01/25 12:42:14;;;;;;;27.23;20.67;;;5.20;99.90;;;;;;10532441;28;20048;-65
2021/01/25 12:47:16;;;;;;;24.65;18.85;;;5.40;99.90;;;;;;10531899;28;20083;-65
2021/01/25 12:52:17;;;;;;;25.02;20.13;;;5.20;99.90;;;;;;10532229;28;20478;-65
2021/01/25 12:57:19;;;;;;;27.50;20.45;;;5.30;99.90;;;;;;10532558;28;20078;-65
2021/01/25 13:02:20;;;;;;;34.53;23.45;;;5.40;99.90;;;;;;10531580;28;20127;-65
2021/01/25 13:07:22;;;;;;;29.50;22.30;;;5.50;99.90;;;;;;10531890;28;20408;-65
2021/01/25 13:12:24;;;;;;;31.48;24.02;;;5.40;99.90;;;;;;10531405;28;20135;-65
2021/01/25 13:17:25;;;;;;;33.53;24.70;;;5.30;99.90;;;;;;10512550;28;20128;-65
2021/01/25 13:22:27;;;;;;;29.52;22.65;;;5.30;99.90;;;;;;10513044;28;20044;-65
2021/01/25 13:27:28;;;;;;;31.13;22.80;;;5.30;99.90;;;;;;10530625;28;20135;-65
2021/01/25 13:32:30;;;;;;;30.58;24.33;;;5.20;99.90;;;;;;10529992;28;20076;-65
2021/01/25 13:37:32;;;;;;;33.30;23.77;;;5.10;99.90;;;;;;10512671;28;20054;-65
2021/01/25 13:42:36;;;;;;;31.48;23.27;;;5.10;99.90;;;;;;10530114;28;20653;-65
2021/01/25 13:47:38;;;;;;;34.40;24.55;;;5.20;99.90;;;;;;10529538;28;20503;-65
2021/01/25 13:52:39;;;;;;;34.00;23.90;;;5.20;99.90;;;;;;10530048;28;20052;-65
2021/01/25 13:57:42;;;;;;;33.00;23.23;;;5.20;99.90;;;;;;10529494;28;20071;-65
2021/01/25 14:02:43;;;;;;;32.45;25.05;;;5.20;99.90;;;;;;10529482;28;20121;-65
2021/01/25 14:07:46;;;;;;;34.65;23.83;;;5.20;99.90;;;;;;10529437;28;20113;-65
2021/01/25 14:12:47;;;;;;;36.28;25.52;;;5.20;99.90;;;;;;10529030;28;20123;-65
2021/01/25 14:17:49;;;;;;;34.78;25.13;;;5.10;99.90;;;;;;10528813;28;20079;-65
2021/01/25 14:22:51;;;;;;;31.63;23.13;;;5.20;99.90;;;;;;10529377;28;20045;-65
2021/01/25 14:27:52;;;;;;;34.10;24.05;;;5.10;99.90;;;;;;10528993;28;20071;-65
2021/01/25 14:32:54;;;;;;;48.35;28.25;;;5.10;99.90;;;;;;10528427;28;20071;-65
2021/01/25 14:37:55;;;;;;;32.67;22.27;;;5.10;99.90;;;;;;10528983;28;20476;-65
2021/01/25 14:42:57;;;;;;;33.15;18.08;;;4.90;99.90;;;;;;10510400;28;20052;-65
2021/01/25 14:48:00;;;;;;;18.65;15.52;;;4.90;99.90;;;;;;10510366;28;20052;-65
2021/01/25 14:53:03;;;;;;;16.80;14.10;;;4.80;99.90;;;;;;10510875;28;20051;-65
2021/01/25 14:58:06;;;;;;;17.75;14.50;;;4.90;99.90;;;;;;10528244;28;20504;-65
2021/01/25 15:03:08;;;;;;;42.50;15.40;;;4.90;99.90;;;;;;10510299;28;20052;-65
2021/01/25 15:08:10;;;;;;;19.25;14.65;;;4.80;99.90;;;;;;10528014;28;20147;-65
2021/01/25 15:13:12;;;;;;;18.45;14.60;;;4.80;99.90;;;;;;10528055;28;20127;-65
2021/01/25 15:18:13;;;;;;;22.80;14.57;;;4.80;99.90;;;;;;10528085;28;20462;-65
2021/01/25 15:23:15;;;;;;;17.70;14.23;;;4.80;99.90;;;;;;10528170;28;20056;-65
2021/01/25 15:28:17;;;;;;;17.98;14.68;;;4.80;99.90;;;;;;10532594;28;20070;-65
2021/01/25 15:33:21;;;;;;;19.33;14.80;;;4.80;99.90;;;;;;10534508;28;20043;-65
2021/01/25 15:38:23;;;;;;;53.45;16.67;;;4.90;99.90;;;;;;10533124;28;20143;-66
2021/01/25 15:43:24;;;;;;;16.48;13.32;;;4.90;99.90;;;;;;10533995;28;20411;-65
2021/01/25 15:48:26;;;;;;;14.98;12.27;;;4.90;99.90;;;;;;10533948;28;20083;-66
2021/01/25 15:53:28;;;;;;;15.27;12.40;;;4.80;99.90;;;;;;10534730;28;20080;-66
2021/01/25 15:58:29;;;;;;;23.20;13.95;;;4.60;99.90;;;;;;10534147;28;20114;-66
2021/01/25 16:03:31;;;;;;;15.68;12.90;;;4.40;99.90;;;;;;10533931;28;20048;-66
2021/01/25 16:08:32;;;;;;;17.65;14.50;;;4.50;99.90;;;;;;10517473;28;20066;-66
2021/01/25 16:13:34;;;;;;;17.35;13.60;;;4.50;99.90;;;;;;10532051;28;20067;-66
2021/01/25 16:18:36;;;;;;;51.33;32.28;;;4.40;99.90;;;;;;10533399;28;20100;-66
2021/01/25 16:23:39;;;;;;;26.50;18.20;;;4.40;99.90;;;;;;10533833;28;20043;-66
2021/01/25 16:28:41;;;;;;;31.15;20.10;;;4.40;99.90;;;;;;10533006;28;20137;-66
2021/01/25 16:33:45;;;;;;;38.45;23.73;;;4.40;99.90;;;;;;10530366;28;20455;-65
2021/01/25 16:38:46;;;;;;;19.77;15.25;;;4.30;99.90;;;;;;10531258;28;20534;-66
2021/01/25 16:43:48;;;;;;;14.80;11.95;;;4.20;99.90;;;;;;10531389;28;20101;-68
2021/01/25 16:48:49;;;;;;;16.00;12.68;;;4.20;99.90;;;;;;10532082;28;20109;-68
2021/01/25 16:53:51;;;;;;;16.35;13.85;;;4.20;99.90;;;;;;10530067;28;20468;-68
2021/01/25 16:58:54;;;;;;;17.33;13.98;;;4.10;99.90;;;;;;10530837;28;20389;-68
2021/01/25 17:03:56;;;;;;;17.27;13.02;;;4.10;99.90;;;;;;10530327;28;20044;-68
2021/01/25 17:08:58;;;;;;;17.48;13.45;;;4.00;99.90;;;;;;10530002;28;20082;-68
2021/01/25 17:13:59;;;;;;;16.27;12.98;;;4.00;99.90;;;;;;10529810;28;20134;-68
2021/01/25 17:19:01;;;;;;;14.82;12.27;;;3.90;99.90;;;;;;10530048;28;20503;-68
2021/01/25 17:24:03;;;;;;;13.60;10.85;;;3.90;99.90;;;;;;10528950;28;20430;-68
2021/01/25 17:29:04;;;;;;;16.52;12.32;;;4.00;99.90;;;;;;10530205;28;20058;-68
2021/01/25 17:34:06;;;;;;;18.15;13.73;;;4.00;99.90;;;;;;10528991;28;20054;-68
2021/01/25 17:39:07;;;;;;;16.20;12.75;;;3.70;99.90;;;;;;10511725;28;20090;-68
2021/01/25 17:44:09;;;;;;;16.98;13.30;;;3.40;99.90;;;;;;10510567;28;20127;-68
2021/01/25 17:49:11;;;;;;;20.90;15.57;;;3.20;99.90;;;;;;10529312;28;20134;-68
2021/01/25 17:54:13;;;;;;;17.73;13.52;;;3.20;99.90;;;;;;10527777;28;20040;-69
2021/01/25 17:59:14;;;;;;;20.75;14.80;;;3.40;99.90;;;;;;10528932;28;20047;-68
2021/01/25 18:04:19;;;;;;;15.13;11.68;;;3.60;99.90;;;;;;10528530;28;20134;-69
2021/01/25 18:09:20;;;;;;;15.20;12.82;;;3.50;99.90;;;;;;10487462;28;20083;-68
2021/01/25 18:14:22;;;;;;;22.05;15.98;;;3.40;99.90;;;;;;10527952;28;20127;-68
2021/01/25 18:19:24;;;;;;;36.15;20.88;;;3.60;99.90;;;;;;10528475;28;20135;-68
2021/01/25 18:24:26;;;;;;;21.65;15.07;;;3.60;99.90;;;;;;10527969;28;20436;-68
2021/01/25 18:29:27;;;;;;;16.60;12.48;;;3.30;99.90;;;;;;10526567;28;20135;-68
2021/01/25 18:34:30;;;;;;;14.98;11.70;;;3.10;99.90;;;;;;10528431;28;20044;-68
2021/01/25 18:39:31;;;;;;;29.70;20.50;;;2.90;99.90;;;;;;10527735;28;20159;-69
2021/01/25 18:44:33;;;;;;;17.52;14.15;;;2.80;99.90;;;;;;10526086;28;20044;-68
2021/01/25 18:49:34;;;;;;;18.63;13.75;;;2.80;99.90;;;;;;10506955;28;20511;-68
2021/01/25 18:54:36;;;;;;;15.93;12.18;;;2.90;99.90;;;;;;10527439;28;20040;-68
2021/01/25 18:59:37;;;;;;;15.32;12.93;;;3.00;99.90;;;;;;10510828;28;20079;-68
2021/01/25 19:04:39;;;;;;;17.08;12.63;;;3.10;99.90;;;;;;10535874;28;20055;-68
2021/01/25 19:09:41;;;;;;;19.42;13.25;;;3.10;99.90;;;;;;10532795;28;20407;-68
2021/01/25 19:14:42;;;;;;;22.50;15.57;;;3.20;99.90;;;;;;10535820;28;20056;-68
2021/01/25 19:19:44;;;;;;;46.35;28.05;;;3.30;99.90;;;;;;10535421;28;20044;-68
2021/01/25 19:24:45;;;;;;;57.75;37.60;;;3.20;99.90;;;;;;10534877;28;20097;-68
2021/01/25 19:29:47;;;;;;;48.30;30.05;;;3.20;99.90;;;;;;10533980;28;20044;-68
2021/01/25 19:34:49;;;;;;;89.38;45.67;;;3.20;99.90;;;;;;10535168;28;20055;-69
2021/01/25 19:39:50;;;;;;;26.85;19.77;;;3.30;99.90;;;;;;10535233;28;20070;-68
2021/01/25 19:44:52;;;;;;;50.33;30.10;;;3.40;99.90;;;;;;10534591;28;20044;-68
2021/01/25 19:49:55;;;;;;;55.05;32.67;;;3.50;99.90;;;;;;10516119;28;20048;-68
2021/01/25 19:54:57;;;;;;;66.05;38.65;;;3.40;99.90;;;;;;10529495;28;20474;-68
2021/01/25 19:59:58;;;;;;;31.42;23.17;;;3.40;99.90;;;;;;10529229;28;20130;-69
2021/01/25 20:05:00;;;;;;;47.20;31.27;;;3.40;99.90;;;;;;10530627;28;20399;-68
2021/01/25 20:10:03;;;;;;;64.50;36.63;;;3.40;99.90;;;;;;10532111;28;20083;-68
2021/01/25 20:15:09;;;;;;;51.45;33.35;;;3.30;99.90;;;;;;10530920;28;20400;-68
2021/01/25 20:20:11;;;;;;;69.43;42.78;;;3.10;99.90;;;;;;10530918;28;20083;-69
2021/01/25 20:25:30;;;;;;;40.33;28.80;;;3.10;99.90;;;;;;10532614;28;20118;-68
2021/01/25 20:30:32;;;;;;;75.45;45.17;;;3.10;99.90;;;;;;10530754;28;20048;-68
2021/01/25 20:35:37;;;;;;;42.95;29.58;;;2.90;99.90;;;;;;10532024;28;20127;-68
2021/01/25 20:40:39;;;;;;;46.45;33.47;;;2.80;99.90;;;;;;10530989;28;20056;-68
2021/01/25 20:45:46;;;;;;;44.60;33.67;;;2.60;99.90;;;;;;10529239;28;20097;-68
2021/01/25 20:50:48;;;;;;;34.88;27.48;;;2.60;99.90;;;;;;10530389;28;20040;-68
2021/01/25 20:55:50;;;;;;;33.20;25.25;;;2.50;99.90;;;;;;10528214;28;20048;-68
2021/01/25 21:00:52;;;;;;;33.28;23.13;;;2.60;99.90;;;;;;10528301;28;20074;-68
2021/01/25 21:05:53;;;;;;;39.58;25.17;;;2.50;99.90;;;;;;10526287;28;20085;-68
2021/01/25 21:10:56;;;;;;;36.42;24.70;;;2.60;99.90;;;;;;10528229;28;20040;-69
2021/01/25 21:15:57;;;;;;;37.15;25.73;;;2.60;99.90;;;;;;10528480;28;20036;-68
2021/01/25 21:20:59;;;;;;;33.35;25.38;;;2.60;99.90;;;;;;10527917;28;20048;-68
2021/01/25 21:26:00;;;;;;;39.33;27.10;;;2.60;99.90;;;;;;10527386;28;20047;-69
2021/01/25 21:31:03;;;;;;;29.33;22.88;;;2.60;99.90;;;;;;10530428;28;20052;-68
2021/01/25 21:36:05;;;;;;;31.95;23.27;;;2.60;99.90;;;;;;10529555;28;20500;-68
2021/01/25 21:41:07;;;;;;;30.85;23.25;;;2.70;99.90;;;;;;10528675;28;20055;-68
2021/01/25 21:46:10;;;;;;;29.30;22.30;;;2.80;99.90;;;;;;10529693;28;20117;-68
2021/01/25 21:51:11;;;;;;;27.48;20.65;;;2.70;99.90;;;;;;10528938;28;20450;-68
2021/01/25 21:56:13;;;;;;;27.58;19.65;;;2.60;99.90;;;;;;10528793;28;20048;-68
2021/01/25 22:01:19;;;;;;;27.02;19.23;;;2.60;99.90;;;;;;10528344;28;20044;-68
2021/01/25 22:06:22;;;;;;;26.80;19.48;;;2.50;99.90;;;;;;10527676;28;20447;-68
2021/01/25 22:11:24;;;;;;;25.55;18.13;;;2.40;99.90;;;;;;10528521;28;20140;-68
2021/01/25 22:16:25;;;;;;;24.30;15.98;;;2.40;99.90;;;;;;10493889;28;20080;-68
2021/01/25 22:21:30;;;;;;;25.70;17.52;;;2.40;99.90;;;;;;10528762;28;20048;-68
2021/01/25 22:26:31;;;;;;;23.17;15.82;;;2.40;99.90;;;;;;10528576;28;20048;-68
2021/01/25 22:31:33;;;;;;;20.63;14.80;;;2.30;99.90;;;;;;10528489;28;20131;-68
2021/01/25 22:36:35;;;;;;;17.73;13.30;;;2.20;99.90;;;;;;10533021;28;20063;-69
2021/01/25 22:41:36;;;;;;;20.50;13.80;;;2.30;99.90;;;;;;10514227;28;20385;-68
2021/01/25 22:46:38;;;;;;;18.80;12.80;;;2.40;99.90;;;;;;10534230;28;20110;-68
2021/01/25 22:51:42;;;;;;;18.75;12.48;;;2.40;99.90;;;;;;10536395;28;20044;-68
2021/01/25 22:56:44;;;;;;;18.65;12.73;;;2.30;99.90;;;;;;10518049;28;20097;-68
2021/01/25 23:01:45;;;;;;;19.38;12.23;;;2.40;99.90;;;;;;10534603;28;20074;-69
2021/01/25 23:06:47;;;;;;;17.90;12.40;;;2.40;99.90;;;;;;10535565;28;20059;-68
2021/01/25 23:11:49;;;;;;;18.65;12.43;;;2.40;99.90;;;;;;10535921;28;20044;-68
2021/01/25 23:16:52;;;;;;;19.05;12.75;;;2.40;99.90;;;;;;10534822;28;20123;-68
2021/01/25 23:21:55;;;;;;;19.33;12.15;;;2.50;99.90;;;;;;10534804;28;20048;-68
2021/01/25 23:26:56;;;;;;;18.20;12.30;;;2.60;99.90;;;;;;10534207;28;20489;-68
2021/01/25 23:32:00;;;;;;;20.08;12.65;;;2.60;99.90;;;;;;10533762;28;20121;-68
2021/01/25 23:37:02;;;;;;;21.50;13.38;;;2.60;99.90;;;;;;10534505;28;20515;-68
2021/01/25 23:42:03;;;;;;;20.85;13.77;;;2.60;99.90;;;;;;10533841;28;20056;-68
2021/01/25 23:47:05;;;;;;;21.05;13.70;;;2.70;99.90;;;;;;10532210;28;20075;-68
2021/01/25 23:52:07;;;;;;;21.17;13.90;;;2.70;99.90;;;;;;10533666;28;20451;-68
2021/01/25 23:57:08;;;;;;;23.60;14.18;;;2.60;99.90;;;;;;10533932;28;20127;-68
